TAF LFLP
LFLP 080200Z 0803/0903 VRB05KT 9999 -RA SCT012 OVC030 PROB40 TEMPO 0803/0809 20012KT 4000 RA BR BKN006 BECMG 0809/0811 NSW SCT012 BKN020 PROB40 TEMPO 0813/0819 VRB15KT 2000 -SHSN BKN012TCU PROB30 TEMPO 0819/0903 VRB15KT 2000 -SHSN BKN012TCU=
METAR LFLP
LFLP 080400Z AUTO 13007KT 9999 -RA OVC026 04/03 Q1002 TEMPO 20012KT 4000 RA BR BKN006=
LFLP 080330Z AUTO 14007KT 9999 -RA OVC027 05/04 Q1003 TEMPO 20012KT 4000 RA BR BKN006=
LFLP 080300Z AUTO 13007KT 9999 -RA FEW013 OVC026 05/04 Q1003 TEMPO 20012KT 4000 RA BR BKN006=
LFLP 080230Z AUTO 12004KT 5000 -RA BR FEW009 BKN027 OVC036 04/04 Q1003 TEMPO 20012KT RA BKN006=
LFLP 080200Z AUTO 30003KT 6000 -RA FEW009 BKN030 OVC035 04/04 Q1004=
WC LFLP
WS LFLP
WV LFLP